sensor_id;sensor_type;location;lat;lon;timestamp;temperature;humidity
40538;DHT22;27925;41.874;12.526;2022-08-19T00:00:13;28.20;90.40
40538;DHT22;27925;41.874;12.526;2022-08-19T00:02:40;28.10;90.50
40538;DHT22;27925;41.874;12.526;2022-08-19T00:05:07;28.10;90.30
40538;DHT22;27925;41.874;12.526;2022-08-19T00:07:34;28.10;90.20
40538;DHT22;27925;41.874;12.526;2022-08-19T00:10:00;28.10;90.00
40538;DHT22;27925;41.874;12.526;2022-08-19T00:12:26;28.20;90.00
40538;DHT22;27925;41.874;12.526;2022-08-19T00:14:52;28.20;90.00
40538;DHT22;27925;41.874;12.526;2022-08-19T00:17:20;28.20;90.10
40538;DHT22;27925;41.874;12.526;2022-08-19T00:19:47;28.10;90.10
40538;DHT22;27925;41.874;12.526;2022-08-19T00:22:13;28.10;90.50
40538;DHT22;27925;41.874;12.526;2022-08-19T00:24:39;28.10;90.30
40538;DHT22;27925;41.874;12.526;2022-08-19T00:27:06;28.10;90.00
40538;DHT22;27925;41.874;12.526;2022-08-19T00:29:32;28.20;89.80
40538;DHT22;27925;41.874;12.526;2022-08-19T00:31:58;28.20;89.10
40538;DHT22;27925;41.874;12.526;2022-08-19T00:34:25;28.20;89.20
40538;DHT22;27925;41.874;12.526;2022-08-19T00:36:55;28.20;89.50
40538;DHT22;27925;41.874;12.526;2022-08-19T00:39:21;28.20;90.20
40538;DHT22;27925;41.874;12.526;2022-08-19T00:41:48;28.10;90.10
40538;DHT22;27925;41.874;12.526;2022-08-19T00:44:16;28.00;90.10
40538;DHT22;27925;41.874;12.526;2022-08-19T00:46:44;28.00;90.30
40538;DHT22;27925;41.874;12.526;2022-08-19T00:49:20;28.00;90.40
40538;DHT22;27925;41.874;12.526;2022-08-19T00:51:51;28.00;90.80
40538;DHT22;27925;41.874;12.526;2022-08-19T00:54:19;27.90;90.50
40538;DHT22;27925;41.874;12.526;2022-08-19T00:56:47;27.90;90.70
40538;DHT22;27925;41.874;12.526;2022-08-19T00:59:14;27.80;90.90
40538;DHT22;27925;41.874;12.526;2022-08-19T01:01:42;27.80;91.10
40538;DHT22;27925;41.874;12.526;2022-08-19T01:04:09;27.80;90.90
40538;DHT22;27925;41.874;12.526;2022-08-19T01:06:39;27.80;91.10
40538;DHT22;27925;41.874;12.526;2022-08-19T01:09:07;27.80;91.10
40538;DHT22;27925;41.874;12.526;2022-08-19T01:11:37;27.70;90.90
40538;DHT22;27925;41.874;12.526;2022-08-19T01:14:06;27.70;91.10
40538;DHT22;27925;41.874;12.526;2022-08-19T01:16:33;27.70;91.10
40538;DHT22;27925;41.874;12.526;2022-08-19T01:19:00;27.80;91.20
40538;DHT22;27925;41.874;12.526;2022-08-19T01:21:32;27.80;91.20
40538;DHT22;27925;41.874;12.526;2022-08-19T01:23:59;27.80;91.20
40538;DHT22;27925;41.874;12.526;2022-08-19T01:26:26;27.80;91.20
40538;DHT22;27925;41.874;12.526;2022-08-19T01:28:55;27.90;91.30
40538;DHT22;27925;41.874;12.526;2022-08-19T01:31:23;27.90;91.30
40538;DHT22;27925;41.874;12.526;2022-08-19T01:33:51;27.90;91.10
40538;DHT22;27925;41.874;12.526;2022-08-19T01:36:26;27.90;91.20
40538;DHT22;27925;41.874;12.526;2022-08-19T01:38:53;27.90;91.30
40538;DHT22;27925;41.874;12.526;2022-08-19T01:41:19;27.90;91.70
40538;DHT22;27925;41.874;12.526;2022-08-19T01:43:45;27.80;92.20
40538;DHT22;27925;41.874;12.526;2022-08-19T01:46:11;27.70;92.30
40538;DHT22;27925;41.874;12.526;2022-08-19T01:48:40;27.70;92.60
40538;DHT22;27925;41.874;12.526;2022-08-19T01:51:07;27.70;92.40
40538;DHT22;27925;41.874;12.526;2022-08-19T01:53:33;27.70;92.40
40538;DHT22;27925;41.874;12.526;2022-08-19T01:56:00;27.70;92.30
40538;DHT22;27925;41.874;12.526;2022-08-19T01:58:32;27.70;92.30
40538;DHT22;27925;41.874;12.526;2022-08-19T02:00:58;27.80;92.40
40538;DHT22;27925;41.874;12.526;2022-08-19T02:03:24;27.70;92.40
40538;DHT22;27925;41.874;12.526;2022-08-19T02:05:55;27.70;92.50
40538;DHT22;27925;41.874;12.526;2022-08-19T02:08:21;27.70;92.60
40538;DHT22;27925;41.874;12.526;2022-08-19T02:10:47;27.70;92.80
40538;DHT22;27925;41.874;12.526;2022-08-19T02:13:13;27.70;92.80
40538;DHT22;27925;41.874;12.526;2022-08-19T02:15:39;27.70;92.70
40538;DHT22;27925;41.874;12.526;2022-08-19T02:18:05;27.70;92.60
40538;DHT22;27925;41.874;12.526;2022-08-19T02:20:31;27.60;92.30
40538;DHT22;27925;41.874;12.526;2022-08-19T02:22:57;27.60;92.00
40538;DHT22;27925;41.874;12.526;2022-08-19T02:25:23;27.60;91.90
40538;DHT22;27925;41.874;12.526;2022-08-19T02:27:48;27.50;91.50
40538;DHT22;27925;41.874;12.526;2022-08-19T02:30:16;27.50;91.30
40538;DHT22;27925;41.874;12.526;2022-08-19T02:32:42;27.50;91.00
40538;DHT22;27925;41.874;12.526;2022-08-19T02:35:09;27.50;91.00
40538;DHT22;27925;41.874;12.526;2022-08-19T02:37:35;27.40;91.10
40538;DHT22;27925;41.874;12.526;2022-08-19T02:40:19;27.40;91.10
40538;DHT22;27925;41.874;12.526;2022-08-19T02:42:45;27.30;90.80
40538;DHT22;27925;41.874;12.526;2022-08-19T02:45:12;27.30;91.00
40538;DHT22;27925;41.874;12.526;2022-08-19T02:47:38;27.30;90.50
40538;DHT22;27925;41.874;12.526;2022-08-19T02:50:05;27.30;90.60
40538;DHT22;27925;41.874;12.526;2022-08-19T02:52:32;27.30;90.60
40538;DHT22;27925;41.874;12.526;2022-08-19T02:54:58;27.30;90.50
40538;DHT22;27925;41.874;12.526;2022-08-19T02:57:25;27.30;90.50
40538;DHT22;27925;41.874;12.526;2022-08-19T02:59:52;27.30;90.60
40538;DHT22;27925;41.874;12.526;2022-08-19T03:02:18;27.30;90.30
40538;DHT22;27925;41.874;12.526;2022-08-19T03:04:43;27.30;90.30
40538;DHT22;27925;41.874;12.526;2022-08-19T03:07:12;27.30;90.30
40538;DHT22;27925;41.874;12.526;2022-08-19T03:09:39;27.20;90.20
40538;DHT22;27925;41.874;12.526;2022-08-19T03:12:05;27.20;90.20
40538;DHT22;27925;41.874;12.526;2022-08-19T03:14:32;27.20;90.40
40538;DHT22;27925;41.874;12.526;2022-08-19T03:16:58;27.20;90.30
40538;DHT22;27925;41.874;12.526;2022-08-19T03:19:24;27.10;90.30
40538;DHT22;27925;41.874;12.526;2022-08-19T03:21:51;27.10;90.30
40538;DHT22;27925;41.874;12.526;2022-08-19T03:24:17;27.10;90.20
40538;DHT22;27925;41.874;12.526;2022-08-19T03:26:50;27.20;90.10
40538;DHT22;27925;41.874;12.526;2022-08-19T03:29:17;27.20;90.00
40538;DHT22;27925;41.874;12.526;2022-08-19T03:31:44;27.20;90.00
40538;DHT22;27925;41.874;12.526;2022-08-19T03:34:12;27.20;90.00
40538;DHT22;27925;41.874;12.526;2022-08-19T03:36:38;27.20;89.80
40538;DHT22;27925;41.874;12.526;2022-08-19T03:39:05;27.20;89.80
40538;DHT22;27925;41.874;12.526;2022-08-19T03:41:35;27.20;89.60
40538;DHT22;27925;41.874;12.526;2022-08-19T03:44:02;27.20;89.50
40538;DHT22;27925;41.874;12.526;2022-08-19T03:46:30;27.10;89.30
40538;DHT22;27925;41.874;12.526;2022-08-19T03:48:59;27.10;89.20
40538;DHT22;27925;41.874;12.526;2022-08-19T03:51:33;27.10;89.10
40538;DHT22;27925;41.874;12.526;2022-08-19T03:54:01;27.10;88.90
40538;DHT22;27925;41.874;12.526;2022-08-19T03:56:28;27.00;89.00
40538;DHT22;27925;41.874;12.526;2022-08-19T03:58:55;27.00;89.10
40538;DHT22;27925;41.874;12.526;2022-08-19T04:01:24;27.10;89.10
40538;DHT22;27925;41.874;12.526;2022-08-19T04:03:51;27.10;88.80
40538;DHT22;27925;41.874;12.526;2022-08-19T04:06:23;27.10;88.90
40538;DHT22;27925;41.874;12.526;2022-08-19T04:08:51;27.10;89.00
40538;DHT22;27925;41.874;12.526;2022-08-19T04:11:21;27.00;89.00
40538;DHT22;27925;41.874;12.526;2022-08-19T04:13:49;27.00;88.90
40538;DHT22;27925;41.874;12.526;2022-08-19T04:16:17;27.00;88.90
40538;DHT22;27925;41.874;12.526;2022-08-19T04:18:43;26.90;88.80
40538;DHT22;27925;41.874;12.526;2022-08-19T04:21:19;26.90;88.80
40538;DHT22;27925;41.874;12.526;2022-08-19T04:23:45;26.90;89.30
40538;DHT22;27925;41.874;12.526;2022-08-19T04:26:16;26.80;88.50
40538;DHT22;27925;41.874;12.526;2022-08-19T04:28:43;26.80;88.20
40538;DHT22;27925;41.874;12.526;2022-08-19T04:31:14;26.70;88.10
40538;DHT22;27925;41.874;12.526;2022-08-19T04:33:40;26.70;88.10
40538;DHT22;27925;41.874;12.526;2022-08-19T04:36:06;26.70;88.40
40538;DHT22;27925;41.874;12.526;2022-08-19T04:38:33;26.60;88.20
40538;DHT22;27925;41.874;12.526;2022-08-19T04:40:59;26.60;88.20
40538;DHT22;27925;41.874;12.526;2022-08-19T04:43:45;26.60;88.60
40538;DHT22;27925;41.874;12.526;2022-08-19T04:46:14;26.60;88.20
40538;DHT22;27925;41.874;12.526;2022-08-19T04:48:40;26.50;88.00
40538;DHT22;27925;41.874;12.526;2022-08-19T04:51:09;26.50;87.80
40538;DHT22;27925;41.874;12.526;2022-08-19T04:53:37;26.50;87.20
40538;DHT22;27925;41.874;12.526;2022-08-19T04:56:15;26.50;87.10
40538;DHT22;27925;41.874;12.526;2022-08-19T04:58:44;26.50;86.90
40538;DHT22;27925;41.874;12.526;2022-08-19T05:01:24;26.50;86.70
40538;DHT22;27925;41.874;12.526;2022-08-19T05:03:50;26.50;86.70
40538;DHT22;27925;41.874;12.526;2022-08-19T05:06:19;26.50;86.60
40538;DHT22;27925;41.874;12.526;2022-08-19T05:08:45;26.50;86.30
40538;DHT22;27925;41.874;12.526;2022-08-19T05:11:20;26.50;86.00
40538;DHT22;27925;41.874;12.526;2022-08-19T05:13:48;26.50;85.40
40538;DHT22;27925;41.874;12.526;2022-08-19T05:16:15;26.50;84.90
40538;DHT22;27925;41.874;12.526;2022-08-19T05:18:43;26.50;85.10
40538;DHT22;27925;41.874;12.526;2022-08-19T05:21:28;26.60;84.40
40538;DHT22;27925;41.874;12.526;2022-08-19T05:24:13;26.60;84.50
40538;DHT22;27925;41.874;12.526;2022-08-19T05:26:43;26.70;83.60
40538;DHT22;27925;41.874;12.526;2022-08-19T05:29:12;26.70;83.10
40538;DHT22;27925;41.874;12.526;2022-08-19T05:31:39;26.80;83.10
40538;DHT22;27925;41.874;12.526;2022-08-19T05:34:06;26.80;82.70
40538;DHT22;27925;41.874;12.526;2022-08-19T05:36:40;26.90;82.30
40538;DHT22;27925;41.874;12.526;2022-08-19T05:39:12;26.90;82.00
40538;DHT22;27925;41.874;12.526;2022-08-19T05:41:48;27.00;81.90
40538;DHT22;27925;41.874;12.526;2022-08-19T05:44:15;27.10;82.50
40538;DHT22;27925;41.874;12.526;2022-08-19T05:46:44;27.20;81.50
40538;DHT22;27925;41.874;12.526;2022-08-19T05:49:15;27.20;81.00
40538;DHT22;27925;41.874;12.526;2022-08-19T05:51:41;27.30;80.90
40538;DHT22;27925;41.874;12.526;2022-08-19T05:54:09;27.30;80.30
40538;DHT22;27925;41.874;12.526;2022-08-19T05:56:36;27.40;80.10
40538;DHT22;27925;41.874;12.526;2022-08-19T05:59:07;27.50;80.40
40538;DHT22;27925;41.874;12.526;2022-08-19T06:01:35;27.70;78.70
40538;DHT22;27925;41.874;12.526;2022-08-19T06:04:01;28.00;79.00
40538;DHT22;27925;41.874;12.526;2022-08-19T06:06:28;28.20;78.20
40538;DHT22;27925;41.874;12.526;2022-08-19T06:08:54;28.40;77.40
40538;DHT22;27925;41.874;12.526;2022-08-19T06:11:34;28.60;76.70
40538;DHT22;27925;41.874;12.526;2022-08-19T06:14:07;28.80;75.10
40538;DHT22;27925;41.874;12.526;2022-08-19T06:16:40;29.10;75.90
40538;DHT22;27925;41.874;12.526;2022-08-19T06:19:10;29.60;73.60
40538;DHT22;27925;41.874;12.526;2022-08-19T06:21:39;30.00;72.70
40538;DHT22;27925;41.874;12.526;2022-08-19T06:24:08;30.40;71.10
40538;DHT22;27925;41.874;12.526;2022-08-19T06:26:37;30.70;69.80
40538;DHT22;27925;41.874;12.526;2022-08-19T06:29:07;31.00;68.50
40538;DHT22;27925;41.874;12.526;2022-08-19T06:31:35;31.20;67.60
40538;DHT22;27925;41.874;12.526;2022-08-19T06:34:03;31.40;65.90
40538;DHT22;27925;41.874;12.526;2022-08-19T06:36:31;31.60;64.80
40538;DHT22;27925;41.874;12.526;2022-08-19T06:39:19;31.80;63.70
40538;DHT22;27925;41.874;12.526;2022-08-19T06:41:48;31.90;62.40
40538;DHT22;27925;41.874;12.526;2022-08-19T06:44:14;31.90;62.70
40538;DHT22;27925;41.874;12.526;2022-08-19T06:46:41;31.90;62.10
40538;DHT22;27925;41.874;12.526;2022-08-19T06:49:07;32.10;61.70
40538;DHT22;27925;41.874;12.526;2022-08-19T06:51:37;32.20;60.50
40538;DHT22;27925;41.874;12.526;2022-08-19T06:54:03;32.30;60.10
40538;DHT22;27925;41.874;12.526;2022-08-19T06:56:31;32.30;58.30
40538;DHT22;27925;41.874;12.526;2022-08-19T06:59:09;32.30;58.70
40538;DHT22;27925;41.874;12.526;2022-08-19T07:01:41;32.30;57.30
40538;DHT22;27925;41.874;12.526;2022-08-19T07:04:09;32.10;58.70
40538;DHT22;27925;41.874;12.526;2022-08-19T07:06:35;31.90;58.90
40538;DHT22;27925;41.874;12.526;2022-08-19T07:09:03;31.70;59.20
40538;DHT22;27925;41.874;12.526;2022-08-19T07:11:30;31.30;59.30
40538;DHT22;27925;41.874;12.526;2022-08-19T07:13:56;31.00;59.80
40538;DHT22;27925;41.874;12.526;2022-08-19T07:16:22;30.80;60.20
40538;DHT22;27925;41.874;12.526;2022-08-19T07:18:49;30.80;60.50
40538;DHT22;27925;41.874;12.526;2022-08-19T07:21:21;30.90;60.10
40538;DHT22;27925;41.874;12.526;2022-08-19T07:23:48;31.00;59.80
40538;DHT22;27925;41.874;12.526;2022-08-19T07:26:23;31.10;59.60
40538;DHT22;27925;41.874;12.526;2022-08-19T07:28:50;31.20;58.30
40538;DHT22;27925;41.874;12.526;2022-08-19T07:31:19;31.40;58.60
40538;DHT22;27925;41.874;12.526;2022-08-19T07:33:46;31.50;58.30
40538;DHT22;27925;41.874;12.526;2022-08-19T07:36:14;31.60;58.00
40538;DHT22;27925;41.874;12.526;2022-08-19T07:38:45;31.60;57.70
40538;DHT22;27925;41.874;12.526;2022-08-19T07:41:15;31.60;57.10
40538;DHT22;27925;41.874;12.526;2022-08-19T07:43:44;31.60;57.00
40538;DHT22;27925;41.874;12.526;2022-08-19T07:46:12;31.40;56.00
40538;DHT22;27925;41.874;12.526;2022-08-19T07:48:41;31.30;57.60
40538;DHT22;27925;41.874;12.526;2022-08-19T07:51:08;31.10;57.90
40538;DHT22;27925;41.874;12.526;2022-08-19T07:53:36;30.80;58.50
40538;DHT22;27925;41.874;12.526;2022-08-19T07:56:03;30.60;58.40
40538;DHT22;27925;41.874;12.526;2022-08-19T07:58:34;30.70;60.00
40538;DHT22;27925;41.874;12.526;2022-08-19T08:01:01;30.80;58.70
40538;DHT22;27925;41.874;12.526;2022-08-19T08:03:27;30.80;58.10
40538;DHT22;27925;41.874;12.526;2022-08-19T08:06:13;30.80;58.10
40538;DHT22;27925;41.874;12.526;2022-08-19T08:08:58;30.80;57.30
40538;DHT22;27925;41.874;12.526;2022-08-19T08:11:50;30.90;55.90
40538;DHT22;27925;41.874;12.526;2022-08-19T08:14:19;30.90;54.80
40538;DHT22;27925;41.874;12.526;2022-08-19T08:16:46;30.90;55.80
40538;DHT22;27925;41.874;12.526;2022-08-19T08:19:13;30.90;55.30
40538;DHT22;27925;41.874;12.526;2022-08-19T08:21:42;30.90;55.20
40538;DHT22;27925;41.874;12.526;2022-08-19T08:24:08;30.80;54.90
40538;DHT22;27925;41.874;12.526;2022-08-19T08:26:34;30.70;54.90
40538;DHT22;27925;41.874;12.526;2022-08-19T08:29:00;30.60;55.20
40538;DHT22;27925;41.874;12.526;2022-08-19T08:31:26;30.50;55.70
40538;DHT22;27925;41.874;12.526;2022-08-19T08:33:52;30.60;55.80
40538;DHT22;27925;41.874;12.526;2022-08-19T08:36:18;30.70;55.70
40538;DHT22;27925;41.874;12.526;2022-08-19T08:38:44;30.70;55.40
40538;DHT22;27925;41.874;12.526;2022-08-19T08:43:58;30.80;55.50
40538;DHT22;27925;41.874;12.526;2022-08-19T08:46:25;30.80;55.80
40538;DHT22;27925;41.874;12.526;2022-08-19T08:48:58;30.80;56.10
40538;DHT22;27925;41.874;12.526;2022-08-19T08:51:47;30.70;57.40
40538;DHT22;27925;41.874;12.526;2022-08-19T08:54:16;30.40;59.30
40538;DHT22;27925;41.874;12.526;2022-08-19T08:56:45;30.10;61.20
40538;DHT22;27925;41.874;12.526;2022-08-19T08:59:24;29.90;62.10
40538;DHT22;27925;41.874;12.526;2022-08-19T09:01:51;29.80;62.80
40538;DHT22;27925;41.874;12.526;2022-08-19T09:04:17;29.70;63.40
40538;DHT22;27925;41.874;12.526;2022-08-19T09:07:08;29.60;63.40
40538;DHT22;27925;41.874;12.526;2022-08-19T09:09:43;29.40;63.70
40538;DHT22;27925;41.874;12.526;2022-08-19T09:15:28;29.20;66.50
40538;DHT22;27925;41.874;12.526;2022-08-19T09:17:59;29.20;66.40
40538;DHT22;27925;41.874;12.526;2022-08-19T09:20:27;29.30;66.70
40538;DHT22;27925;41.874;12.526;2022-08-19T09:22:53;29.30;67.00
40538;DHT22;27925;41.874;12.526;2022-08-19T09:25:21;29.40;67.00
40538;DHT22;27925;41.874;12.526;2022-08-19T09:27:51;29.50;67.10
40538;DHT22;27925;41.874;12.526;2022-08-19T09:30:27;29.50;67.10
40538;DHT22;27925;41.874;12.526;2022-08-19T09:32:54;29.60;65.10
40538;DHT22;27925;41.874;12.526;2022-08-19T09:35:25;29.70;64.70
40538;DHT22;27925;41.874;12.526;2022-08-19T09:37:52;29.80;63.90
40538;DHT22;27925;41.874;12.526;2022-08-19T09:40:19;29.90;62.80
40538;DHT22;27925;41.874;12.526;2022-08-19T09:42:46;29.90;63.20
40538;DHT22;27925;41.874;12.526;2022-08-19T09:45:16;29.90;62.80
40538;DHT22;27925;41.874;12.526;2022-08-19T09:47:43;29.80;62.70
40538;DHT22;27925;41.874;12.526;2022-08-19T09:50:11;29.80;62.50
40538;DHT22;27925;41.874;12.526;2022-08-19T09:52:37;29.70;62.00
40538;DHT22;27925;41.874;12.526;2022-08-19T09:55:05;29.60;61.50
40538;DHT22;27925;41.874;12.526;2022-08-19T09:57:32;29.70;60.90
40538;DHT22;27925;41.874;12.526;2022-08-19T09:59:57;29.80;61.20
40538;DHT22;27925;41.874;12.526;2022-08-19T10:02:23;29.80;61.00
40538;DHT22;27925;41.874;12.526;2022-08-19T10:04:50;29.80;60.80
40538;DHT22;27925;41.874;12.526;2022-08-19T10:07:34;29.90;59.30
40538;DHT22;27925;41.874;12.526;2022-08-19T10:10:00;29.90;59.40
40538;DHT22;27925;41.874;12.526;2022-08-19T10:12:26;29.90;60.70
40538;DHT22;27925;41.874;12.526;2022-08-19T10:14:52;29.90;60.00
40538;DHT22;27925;41.874;12.526;2022-08-19T10:17:20;30.00;59.00
40538;DHT22;27925;41.874;12.526;2022-08-19T10:19:45;30.00;57.90
40538;DHT22;27925;41.874;12.526;2022-08-19T10:22:12;30.00;58.50
40538;DHT22;27925;41.874;12.526;2022-08-19T10:24:39;30.10;58.90
40538;DHT22;27925;41.874;12.526;2022-08-19T10:27:06;30.10;58.10
40538;DHT22;27925;41.874;12.526;2022-08-19T10:29:32;30.10;59.20
40538;DHT22;27925;41.874;12.526;2022-08-19T10:32:04;30.10;58.70
40538;DHT22;27925;41.874;12.526;2022-08-19T10:34:32;30.20;57.70
40538;DHT22;27925;41.874;12.526;2022-08-19T10:36:59;30.20;57.60
40538;DHT22;27925;41.874;12.526;2022-08-19T10:39:26;30.10;56.90
40538;DHT22;27925;41.874;12.526;2022-08-19T10:41:54;30.10;57.00
40538;DHT22;27925;41.874;12.526;2022-08-19T10:44:21;30.00;56.70
40538;DHT22;27925;41.874;12.526;2022-08-19T10:46:48;29.90;56.60
40538;DHT22;27925;41.874;12.526;2022-08-19T10:49:14;29.80;57.10
40538;DHT22;27925;41.874;12.526;2022-08-19T10:51:41;29.80;57.40
40538;DHT22;27925;41.874;12.526;2022-08-19T10:54:26;29.80;57.90
40538;DHT22;27925;41.874;12.526;2022-08-19T10:57:12;29.80;59.50
40538;DHT22;27925;41.874;12.526;2022-08-19T10:59:38;29.70;61.60
40538;DHT22;27925;41.874;12.526;2022-08-19T11:02:08;29.80;62.50
40538;DHT22;27925;41.874;12.526;2022-08-19T11:04:36;29.80;64.40
40538;DHT22;27925;41.874;12.526;2022-08-19T11:07:02;29.70;65.30
40538;DHT22;27925;41.874;12.526;2022-08-19T11:09:29;29.70;66.00
40538;DHT22;27925;41.874;12.526;2022-08-19T11:11:55;29.50;66.70
40538;DHT22;27925;41.874;12.526;2022-08-19T11:14:22;29.40;67.50
40538;DHT22;27925;41.874;12.526;2022-08-19T11:16:49;29.40;68.20
40538;DHT22;27925;41.874;12.526;2022-08-19T11:19:16;29.30;68.40
40538;DHT22;27925;41.874;12.526;2022-08-19T11:21:47;29.30;68.20
40538;DHT22;27925;41.874;12.526;2022-08-19T11:24:18;29.20;68.30
40538;DHT22;27925;41.874;12.526;2022-08-19T11:26:46;29.20;67.80
40538;DHT22;27925;41.874;12.526;2022-08-19T11:29:15;29.20;67.20
40538;DHT22;27925;41.874;12.526;2022-08-19T11:31:43;29.30;66.50
40538;DHT22;27925;41.874;12.526;2022-08-19T11:34:11;29.40;65.20
40538;DHT22;27925;41.874;12.526;2022-08-19T11:36:40;29.60;64.60
40538;DHT22;27925;41.874;12.526;2022-08-19T11:39:08;29.70;64.60
40538;DHT22;27925;41.874;12.526;2022-08-19T11:41:35;29.70;63.90
40538;DHT22;27925;41.874;12.526;2022-08-19T11:44:01;29.80;63.40
40538;DHT22;27925;41.874;12.526;2022-08-19T11:46:28;29.80;63.00
40538;DHT22;27925;41.874;12.526;2022-08-19T11:48:56;29.90;62.60
40538;DHT22;27925;41.874;12.526;2022-08-19T11:51:23;30.00;62.10
40538;DHT22;27925;41.874;12.526;2022-08-19T11:53:50;30.20;61.90
40538;DHT22;27925;41.874;12.526;2022-08-19T11:56:16;30.30;61.80
40538;DHT22;27925;41.874;12.526;2022-08-19T11:58:42;30.30;62.10
40538;DHT22;27925;41.874;12.526;2022-08-19T12:01:13;30.30;61.10
40538;DHT22;27925;41.874;12.526;2022-08-19T12:03:41;30.20;59.70
40538;DHT22;27925;41.874;12.526;2022-08-19T12:06:09;30.20;60.80
40538;DHT22;27925;41.874;12.526;2022-08-19T12:08:35;30.20;60.70
40538;DHT22;27925;41.874;12.526;2022-08-19T12:11:01;30.20;60.30
40538;DHT22;27925;41.874;12.526;2022-08-19T12:13:28;30.30;60.00
40538;DHT22;27925;41.874;12.526;2022-08-19T12:15:54;30.40;58.60
40538;DHT22;27925;41.874;12.526;2022-08-19T12:18:20;30.50;59.10
40538;DHT22;27925;41.874;12.526;2022-08-19T12:20:45;30.50;58.50
40538;DHT22;27925;41.874;12.526;2022-08-19T12:23:13;30.50;58.40
40538;DHT22;27925;41.874;12.526;2022-08-19T12:25:45;30.50;58.90
40538;DHT22;27925;41.874;12.526;2022-08-19T12:28:15;30.60;58.40
40538;DHT22;27925;41.874;12.526;2022-08-19T12:30:42;30.60;57.60
40538;DHT22;27925;41.874;12.526;2022-08-19T12:33:09;30.60;57.00
40538;DHT22;27925;41.874;12.526;2022-08-19T12:35:35;30.60;56.70
40538;DHT22;27925;41.874;12.526;2022-08-19T12:38:01;30.70;56.80
40538;DHT22;27925;41.874;12.526;2022-08-19T12:40:28;30.70;55.90
40538;DHT22;27925;41.874;12.526;2022-08-19T12:42:54;30.60;55.30
40538;DHT22;27925;41.874;12.526;2022-08-19T12:45:20;30.70;55.50
40538;DHT22;27925;41.874;12.526;2022-08-19T12:47:46;30.60;55.10
40538;DHT22;27925;41.874;12.526;2022-08-19T12:50:12;30.60;55.20
40538;DHT22;27925;41.874;12.526;2022-08-19T12:52:37;30.60;55.10
40538;DHT22;27925;41.874;12.526;2022-08-19T12:55:06;30.70;55.50
40538;DHT22;27925;41.874;12.526;2022-08-19T12:57:32;30.60;54.60
40538;DHT22;27925;41.874;12.526;2022-08-19T13:00:11;30.50;54.20
40538;DHT22;27925;41.874;12.526;2022-08-19T13:02:39;30.40;54.40
40538;DHT22;27925;41.874;12.526;2022-08-19T13:05:08;30.30;54.90
40538;DHT22;27925;41.874;12.526;2022-08-19T13:07:36;30.20;55.00
40538;DHT22;27925;41.874;12.526;2022-08-19T13:10:03;30.20;55.60
40538;DHT22;27925;41.874;12.526;2022-08-19T13:12:30;30.20;55.10
40538;DHT22;27925;41.874;12.526;2022-08-19T13:14:56;30.20;55.80
40538;DHT22;27925;41.874;12.526;2022-08-19T13:17:24;30.10;54.50
40538;DHT22;27925;41.874;12.526;2022-08-19T13:19:50;30.10;54.40
40538;DHT22;27925;41.874;12.526;2022-08-19T13:22:16;30.10;56.10
40538;DHT22;27925;41.874;12.526;2022-08-19T13:24:42;30.00;56.50
40538;DHT22;27925;41.874;12.526;2022-08-19T13:27:08;30.00;56.30
40538;DHT22;27925;41.874;12.526;2022-08-19T13:29:34;30.00;56.90
40538;DHT22;27925;41.874;12.526;2022-08-19T13:32:18;30.00;55.80
40538;DHT22;27925;41.874;12.526;2022-08-19T13:35:03;30.10;55.70
40538;DHT22;27925;41.874;12.526;2022-08-19T13:37:29;30.10;56.50
40538;DHT22;27925;41.874;12.526;2022-08-19T13:40:18;30.10;55.70
40538;DHT22;27925;41.874;12.526;2022-08-19T13:42:48;30.10;55.80
40538;DHT22;27925;41.874;12.526;2022-08-19T13:45:17;30.20;57.60
40538;DHT22;27925;41.874;12.526;2022-08-19T13:47:45;30.20;58.30
40538;DHT22;27925;41.874;12.526;2022-08-19T13:50:13;30.30;58.00
40538;DHT22;27925;41.874;12.526;2022-08-19T13:52:39;30.30;58.60
40538;DHT22;27925;41.874;12.526;2022-08-19T13:55:06;30.30;57.70
40538;DHT22;27925;41.874;12.526;2022-08-19T13:57:33;30.30;58.20
40538;DHT22;27925;41.874;12.526;2022-08-19T13:59:59;30.30;56.90
40538;DHT22;27925;41.874;12.526;2022-08-19T14:02:25;30.30;56.50
40538;DHT22;27925;41.874;12.526;2022-08-19T14:04:52;30.20;57.40
40538;DHT22;27925;41.874;12.526;2022-08-19T14:07:18;30.20;57.60
40538;DHT22;27925;41.874;12.526;2022-08-19T14:09:43;30.20;56.60
40538;DHT22;27925;41.874;12.526;2022-08-19T14:12:09;30.10;57.90
40538;DHT22;27925;41.874;12.526;2022-08-19T14:14:38;30.00;57.50
40538;DHT22;27925;41.874;12.526;2022-08-19T14:17:08;30.00;58.70
40538;DHT22;27925;41.874;12.526;2022-08-19T14:19:35;29.90;56.40
40538;DHT22;27925;41.874;12.526;2022-08-19T14:22:02;29.80;57.70
40538;DHT22;27925;41.874;12.526;2022-08-19T14:24:27;29.80;58.10
40538;DHT22;27925;41.874;12.526;2022-08-19T14:26:53;29.90;58.50
40538;DHT22;27925;41.874;12.526;2022-08-19T14:29:19;30.00;58.30
40538;DHT22;27925;41.874;12.526;2022-08-19T14:31:45;30.10;56.80
40538;DHT22;27925;41.874;12.526;2022-08-19T14:34:11;30.20;55.90
40538;DHT22;27925;41.874;12.526;2022-08-19T14:36:38;30.20;55.50
40538;DHT22;27925;41.874;12.526;2022-08-19T14:39:04;30.20;56.40
40538;DHT22;27925;41.874;12.526;2022-08-19T14:41:30;30.10;55.80
40538;DHT22;27925;41.874;12.526;2022-08-19T14:43:57;30.10;54.90
40538;DHT22;27925;41.874;12.526;2022-08-19T14:46:25;30.30;55.30
40538;DHT22;27925;41.874;12.526;2022-08-19T14:48:52;30.40;55.10
40538;DHT22;27925;41.874;12.526;2022-08-19T14:51:19;30.40;55.60
40538;DHT22;27925;41.874;12.526;2022-08-19T14:53:45;30.30;56.20
40538;DHT22;27925;41.874;12.526;2022-08-19T14:56:17;30.20;56.30
40538;DHT22;27925;41.874;12.526;2022-08-19T14:58:44;30.10;56.40
40538;DHT22;27925;41.874;12.526;2022-08-19T15:01:10;30.00;57.40
40538;DHT22;27925;41.874;12.526;2022-08-19T15:03:37;29.80;57.80
40538;DHT22;27925;41.874;12.526;2022-08-19T15:06:04;29.70;57.70
40538;DHT22;27925;41.874;12.526;2022-08-19T15:08:31;29.70;57.40
40538;DHT22;27925;41.874;12.526;2022-08-19T15:10:58;29.60;57.50
40538;DHT22;27925;41.874;12.526;2022-08-19T15:13:26;29.50;56.70
40538;DHT22;27925;41.874;12.526;2022-08-19T15:15:53;29.50;57.30
40538;DHT22;27925;41.874;12.526;2022-08-19T15:18:19;29.60;57.50
40538;DHT22;27925;41.874;12.526;2022-08-19T15:20:46;29.70;57.30
40538;DHT22;27925;41.874;12.526;2022-08-19T15:23:14;29.80;57.50
40538;DHT22;27925;41.874;12.526;2022-08-19T15:25:41;29.90;57.70
40538;DHT22;27925;41.874;12.526;2022-08-19T15:28:08;30.00;57.00